Time;durP1;ratioP1;P1;durP2;ratioP2;P2;SDS_P1;SDS_P2;PMS_P1;PMS_P2;Temp;Humidity;BMP_temperature;BMP_pressure;BME280_temperature;BME280_humidity;BME280_pressure;Samples;Min_cycle;Max_cycle;Signal;HPM_P1;HPM_P2
2022/10/11 00:01:25;;;;;;;;;;;;;;;11.28;100.00;100941.94;5531981;32;34728;-65
2022/10/11 00:04:31;;;;;;;;;;;;;;;11.29;100.00;100948.09;5531147;32;34474;-66
2022/10/11 00:07:37;;;;;;;;;;;;;;;11.39;99.11;100942.66;5531595;32;34929;-65
2022/10/11 00:10:43;;;;;;;;;;;;;;;11.29;100.00;100938.28;5530813;32;34221;-65
2022/10/11 00:13:50;;;;;;;;;;;;;;;11.23;99.82;100930.16;5531603;32;34981;-66
2022/10/11 00:16:56;;;;;;;;;;;;;;;11.22;99.86;100933.78;5530835;32;34948;-65
2022/10/11 00:20:01;;;;;;;;;;;;;;;11.23;100.00;100944.22;5531489;32;34709;-65
2022/10/11 00:23:09;;;;;;;;;;;;;;;11.29;100.00;100937.47;5531532;32;34852;-65
2022/10/11 00:26:14;;;;;;;;;;;;;;;11.20;100.00;100941.91;5531433;32;35032;-65
2022/10/11 00:29:24;;;;;;;;;;;;;;;11.14;100.00;100921.28;5531290;32;34475;-65
2022/10/11 00:32:31;;;;;;;;;;;;;;;11.06;100.00;100923.91;5531313;32;34873;-65
2022/10/11 00:35:40;;;;;;;;;;;;;;;11.13;100.00;100918.81;5531497;32;34252;-65
2022/10/11 00:38:49;;;;;;;;;;;;;;;11.02;100.00;100929.69;5531421;32;34297;-65
2022/10/11 00:41:55;;;;;;;;;;;;;;;10.87;100.00;100922.31;5530179;32;33550;-66
2022/10/11 00:45:19;;;;;;;;;;;;;;;10.70;100.00;100925.81;5531292;32;34223;-66
2022/10/11 00:48:32;;;;;;;;;;;;;;;10.65;100.00;100924.66;5530160;32;34037;-65
2022/10/11 00:51:47;;;;;;;;;;;;;;;10.56;100.00;100929.03;5531246;32;34600;-65
2022/10/11 00:54:57;;;;;;;;;;;;;;;10.52;100.00;100925.03;5529747;32;34551;-65
2022/10/11 00:58:02;;;;;;;;;;;;;;;10.56;100.00;100928.19;5531059;32;34652;-65
2022/10/11 01:01:11;;;;;;;;;;;;;;;10.50;100.00;100918.22;5531251;32;34339;-65
2022/10/11 01:04:21;;;;;;;;;;;;;;;10.42;100.00;100911.03;5531048;32;34827;-65
2022/10/11 01:07:30;;;;;;;;;;;;;;;10.50;100.00;100913.75;5529931;32;34806;-65
2022/10/11 01:10:36;;;;;;;;;;;;;;;10.40;100.00;100919.16;5529881;32;34154;-66
2022/10/11 01:14:01;;;;;;;;;;;;;;;10.33;100.00;100918.09;5530782;32;34467;-65
2022/10/11 01:17:11;;;;;;;;;;;;;;;10.38;100.00;100912.31;5530717;32;34839;-65
2022/10/11 01:20:37;;;;;;;;;;;;;;;10.27;100.00;100921.34;5530684;32;34021;-66
2022/10/11 01:23:55;;;;;;;;;;;;;;;10.21;100.00;100921.97;5530619;32;34959;-65
2022/10/11 01:27:03;;;;;;;;;;;;;;;10.16;100.00;100918.94;5530584;32;34777;-65
2022/10/11 01:30:20;;;;;;;;;;;;;;;10.14;100.00;100906.78;5529866;32;34909;-65
2022/10/11 01:33:38;;;;;;;;;;;;;;;10.16;100.00;100910.16;5530543;32;34537;-65
2022/10/11 01:37:02;;;;;;;;;;;;;;;10.29;100.00;100910.59;5530403;32;34853;-65
2022/10/11 01:40:12;;;;;;;;;;;;;;;10.25;100.00;100911.87;5529636;32;34380;-65
2022/10/11 01:43:19;;;;;;;;;;;;;;;10.23;100.00;100903.25;5529620;32;34925;-66
2022/10/11 01:46:27;;;;;;;;;;;;;;;10.23;100.00;100906.72;5530186;32;34651;-65
2022/10/11 01:49:35;;;;;;;;;;;;;;;10.13;100.00;100903.28;5530650;32;34394;-66
2022/10/11 01:52:44;;;;;;;;;;;;;;;10.03;100.00;100899.88;5530074;32;34187;-65
2022/10/11 01:55:57;;;;;;;;;;;;;;;9.96;100.00;100897.00;5530244;32;34954;-65
2022/10/11 01:59:09;;;;;;;;;;;;;;;9.89;100.00;100895.09;5529982;32;34667;-66
2022/10/11 02:02:22;;;;;;;;;;;;;;;9.80;100.00;100898.66;5529864;32;34721;-66
2022/10/11 02:05:45;;;;;;;;;;;;;;;9.81;100.00;100905.63;5530641;32;34808;-65
2022/10/11 02:08:58;;;;;;;;;;;;;;;9.75;100.00;100907.06;5532704;32;34239;-66
2022/10/11 02:12:17;;;;;;;;;;;;;;;9.74;100.00;100905.38;5532731;32;34254;-65
2022/10/11 02:15:27;;;;;;;;;;;;;;;9.78;100.00;100904.09;5532672;32;34833;-65
2022/10/11 02:18:35;;;;;;;;;;;;;;;9.79;100.00;100910.22;5532662;32;34974;-65
2022/10/11 02:21:49;;;;;;;;;;;;;;;9.77;100.00;100909.56;5532949;32;34239;-65
2022/10/11 02:24:55;;;;;;;;;;;;;;;9.91;100.00;100901.09;5532430;32;34936;-65
2022/10/11 02:28:06;;;;;;;;;;;;;;;9.82;100.00;100902.00;5531575;32;34436;-66
2022/10/11 02:31:15;;;;;;;;;;;;;;;9.73;100.00;100900.25;5531809;32;34883;-66
2022/10/11 02:34:22;;;;;;;;;;;;;;;9.74;100.00;100899.25;5532409;32;34283;-66
2022/10/11 02:37:39;;;;;;;;;;;;;;;9.75;100.00;100907.06;5532622;32;34543;-65
2022/10/11 02:40:50;;;;;;;;;;;;;;;9.76;100.00;100908.72;5532368;32;34314;-65
2022/10/11 02:44:06;;;;;;;;;;;;;;;9.86;100.00;100901.56;5532362;32;34906;-65
2022/10/11 02:47:14;;;;;;;;;;;;;;;9.91;100.00;100903.75;5531618;32;33740;-66
2022/10/11 02:50:20;;;;;;;;;;;;;;;9.85;100.00;100912.28;5531070;32;35077;-66
2022/10/11 02:53:27;;;;;;;;;;;;;;;9.87;100.00;100913.81;5532194;32;34272;-65
2022/10/11 02:56:35;;;;;;;;;;;;;;;9.94;100.00;100914.03;5532268;32;34899;-66
2022/10/11 02:59:44;;;;;;;;;;;;;;;10.02;100.00;100907.00;5531129;32;33825;-66
2022/10/11 03:02:51;;;;;;;;;;;;;;;10.10;100.00;100908.91;5532212;32;34623;-66
2022/10/11 03:06:00;;;;;;;;;;;;;;;10.11;100.00;100907.09;5530872;32;34188;-66
2022/10/11 03:09:12;;;;;;;;;;;;;;;10.04;100.00;100910.34;5531691;32;35049;-67
2022/10/11 03:12:18;;;;;;;;;;;;;;;9.99;100.00;100917.91;5551152;32;34948;-66
2022/10/11 03:15:24;;;;;;;;;;;;;;;9.93;100.00;100915.00;5551570;32;34194;-66
2022/10/11 03:18:31;;;;;;;;;;;;;;;9.90;100.00;100910.03;5551355;32;34941;-65
2022/10/11 03:21:40;;;;;;;;;;;;;;;9.96;100.00;100899.66;5551340;32;34325;-66
2022/10/11 03:24:46;;;;;;;;;;;;;;;9.89;100.00;100909.19;5551287;32;34931;-67
2022/10/11 03:27:52;;;;;;;;;;;;;;;9.85;100.00;100912.28;5551332;32;34931;-66
2022/10/11 03:31:00;;;;;;;;;;;;;;;9.84;100.00;100923.88;5551354;32;34649;-66
2022/10/11 03:34:05;;;;;;;;;;;;;;;9.78;100.00;100916.53;5551184;32;34645;-66
2022/10/11 03:37:12;;;;;;;;;;;;;;;9.83;100.00;100927.50;5551277;32;35056;-66
2022/10/11 03:40:18;;;;;;;;;;;;;;;9.97;100.00;100927.00;5551082;32;35179;-66
2022/10/11 03:43:25;;;;;;;;;;;;;;;9.99;100.00;100917.06;5551153;32;34282;-67
2022/10/11 03:46:33;;;;;;;;;;;;;;;10.08;100.00;100915.31;5524673;32;34821;-66
2022/10/11 03:49:38;;;;;;;;;;;;;;;10.18;100.00;100926.72;5551108;32;34294;-66
2022/10/11 03:52:48;;;;;;;;;;;;;;;10.30;100.00;100936.13;5551045;32;34831;-66
2022/10/11 03:55:56;;;;;;;;;;;;;;;10.47;100.00;100927.31;5551399;32;34953;-66
2022/10/11 03:59:06;;;;;;;;;;;;;;;10.52;100.00;100937.47;5538388;32;34881;-66
2022/10/11 04:02:14;;;;;;;;;;;;;;;10.44;100.00;100931.13;5550972;32;34862;-66
2022/10/11 04:05:21;;;;;;;;;;;;;;;10.45;100.00;100930.12;5551111;32;34834;-66
2022/10/11 04:08:28;;;;;;;;;;;;;;;10.46;100.00;100931.78;5537641;32;432580;-66
2022/10/11 04:11:34;;;;;;;;;;;;;;;10.59;100.00;100935.88;5550722;32;34930;-66
2022/10/11 04:14:40;;;;;;;;;;;;;;;10.58;100.00;100942.16;5536966;32;34129;-67
2022/10/11 04:17:47;;;;;;;;;;;;;;;10.64;100.00;100926.47;5550865;32;34862;-66
2022/10/11 04:20:53;;;;;;;;;;;;;;;10.64;100.00;100931.78;5550903;32;34258;-66
2022/10/11 04:24:01;;;;;;;;;;;;;;;10.68;100.00;100929.63;5550808;32;34997;-67
2022/10/11 04:27:08;;;;;;;;;;;;;;;10.64;100.00;100936.25;5536537;32;34925;-66
2022/10/11 04:30:17;;;;;;;;;;;;;;;10.74;100.00;100934.31;5549769;32;34315;-66
2022/10/11 04:33:22;;;;;;;;;;;;;;;10.89;100.00;100949.50;5550694;32;34801;-65
2022/10/11 04:36:31;;;;;;;;;;;;;;;10.79;100.00;100947.97;5550651;32;34208;-66
2022/10/11 04:39:38;;;;;;;;;;;;;;;10.88;100.00;100933.75;5536647;32;34178;-66
2022/10/11 04:42:45;;;;;;;;;;;;;;;10.92;100.00;100936.91;5537454;32;35085;-66
2022/10/11 04:45:50;;;;;;;;;;;;;;;10.86;100.00;100931.25;5537146;32;34492;-66
2022/10/11 04:49:00;;;;;;;;;;;;;;;10.86;100.00;100928.59;5550384;32;34399;-66
2022/10/11 04:52:04;;;;;;;;;;;;;;;10.82;100.00;100931.72;5550435;32;34525;-67
2022/10/11 04:55:09;;;;;;;;;;;;;;;10.86;100.00;100933.06;5550213;32;34163;-66
2022/10/11 04:58:13;;;;;;;;;;;;;;;10.82;100.00;100937.03;5536420;32;34136;-67
2022/10/11 05:01:18;;;;;;;;;;;;;;;10.83;100.00;100928.09;5550161;32;34884;-66
2022/10/11 05:04:26;;;;;;;;;;;;;;;10.80;100.00;100929.22;5550058;32;34261;-67
2022/10/11 05:07:30;;;;;;;;;;;;;;;10.78;100.00;100940.97;5550133;32;34141;-68
2022/10/11 05:10:34;;;;;;;;;;;;;;;10.73;100.00;100935.31;5550286;32;34920;-67
2022/10/11 05:13:38;;;;;;;;;;;;;;;10.71;100.00;100939.94;5535791;32;34969;-67
2022/10/11 05:16:41;;;;;;;;;;;;;;;10.75;100.00;100934.16;5550037;32;35012;-67
2022/10/11 05:19:45;;;;;;;;;;;;;;;10.87;100.00;100935.56;5549886;32;34812;-67
2022/10/11 05:22:48;;;;;;;;;;;;;;;10.98;100.00;100936.31;5549973;32;34875;-67
2022/10/11 05:25:53;;;;;;;;;;;;;;;11.05;100.00;100946.13;5523163;32;35264;-66
2022/10/11 05:28:56;;;;;;;;;;;;;;;11.15;100.00;100936.22;5549425;32;34213;-66
2022/10/11 05:32:01;;;;;;;;;;;;;;;11.19;100.00;100952.66;5549503;32;34891;-66
2022/10/11 05:35:05;;;;;;;;;;;;;;;11.25;100.00;100958.19;5549462;32;34600;-66
2022/10/11 05:38:08;;;;;;;;;;;;;;;11.37;100.00;100952.63;5549404;32;34755;-67
2022/10/11 05:41:14;;;;;;;;;;;;;;;11.50;100.00;100964.47;5550575;32;34104;-67
2022/10/11 05:44:19;;;;;;;;;;;;;;;11.60;100.00;100962.50;5551430;32;35031;-67
2022/10/11 05:47:22;;;;;;;;;;;;;;;11.81;100.00;100966.63;5551280;32;34274;-67
2022/10/11 05:50:26;;;;;;;;;;;;;;;11.76;100.00;100972.41;5551218;32;34228;-67
2022/10/11 05:53:29;;;;;;;;;;;;;;;11.86;100.00;100966.97;5551179;32;34651;-67
2022/10/11 05:56:34;;;;;;;;;;;;;;;11.81;100.00;100972.75;5551835;32;33240;-67
2022/10/11 05:59:37;;;;;;;;;;;;;;;11.76;100.00;100981.19;5551861;32;34411;-68
2022/10/11 06:02:42;;;;;;;;;;;;;;;11.74;100.00;100982.37;5551796;32;34707;-69
2022/10/11 06:05:47;;;;;;;;;;;;;;;11.83;100.00;100980.56;5537746;32;35496;-68
2022/10/11 06:08:56;;;;;;;;;;;;;;;11.75;100.00;100989.34;5551536;32;34292;-66
2022/10/11 06:12:00;;;;;;;;;;;;;;;11.75;100.00;100990.19;5551232;32;34797;-66
2022/10/11 06:15:03;;;;;;;;;;;;;;;11.66;100.00;100993.78;5551454;32;34925;-66
2022/10/11 06:18:06;;;;;;;;;;;;;;;11.70;100.00;100992.47;5551475;32;34241;-66
2022/10/11 06:21:09;;;;;;;;;;;;;;;11.71;100.00;100991.44;5551431;32;34944;-67
2022/10/11 06:24:12;;;;;;;;;;;;;;;11.76;100.00;100993.69;5538073;32;34993;-67
2022/10/11 06:27:15;;;;;;;;;;;;;;;11.91;100.00;101000.03;5551498;32;34607;-67
2022/10/11 06:30:18;;;;;;;;;;;;;;;12.04;99.82;101005.72;5551176;32;34330;-66
2022/10/11 06:33:21;;;;;;;;;;;;;;;12.12;96.52;101010.22;5551387;32;34548;-66
2022/10/11 06:36:24;;;;;;;;;;;;;;;12.49;92.61;101010.63;5537459;32;32808;-66
2022/10/11 06:39:27;;;;;;;;;;;;;;;12.51;92.24;101007.81;5537625;32;34315;-66
2022/10/11 06:42:31;;;;;;;;;;;;;;;12.43;93.08;101003.31;5537230;32;34912;-67
2022/10/11 06:45:34;;;;;;;;;;;;;;;12.43;93.54;101000.66;5551231;32;35073;-67
2022/10/11 06:48:39;;;;;;;;;;;;;;;12.52;93.74;101002.34;5551056;32;34331;-67
2022/10/11 06:51:42;;;;;;;;;;;;;;;12.54;94.46;100999.47;5551054;32;34877;-67
2022/10/11 06:54:48;;;;;;;;;;;;;;;12.49;94.41;101002.63;5551630;32;34274;-67
2022/10/11 06:57:53;;;;;;;;;;;;;;;12.61;94.25;101004.00;5551282;32;34930;-67
2022/10/11 07:01:01;;;;;;;;;;;;;;;12.66;92.78;101011.47;5537847;32;34311;-67
2022/10/11 07:04:04;;;;;;;;;;;;;;;12.58;92.39;101011.50;5551423;32;34742;-67
2022/10/11 07:07:07;;;;;;;;;;;;;;;12.60;92.32;101018.28;5551162;32;34269;-66
2022/10/11 07:10:10;;;;;;;;;;;;;;;12.68;91.54;101020.16;5551206;32;34675;-67
2022/10/11 07:13:15;;;;;;;;;;;;;;;12.88;90.23;101021.47;5537114;32;34911;-67
2022/10/11 07:16:19;;;;;;;;;;;;;;;13.12;89.52;101027.81;5551316;32;35145;-67
2022/10/11 07:19:24;;;;;;;;;;;;;;;13.24;89.27;101029.13;5551195;32;34297;-66
2022/10/11 07:22:27;;;;;;;;;;;;;;;13.21;88.74;101021.47;5536587;32;34440;-67
2022/10/11 07:25:31;;;;;;;;;;;;;;;13.56;87.58;101022.88;5537287;32;35387;-67
2022/10/11 07:28:34;;;;;;;;;;;;;;;13.60;86.20;101019.72;5537403;32;34464;-67
2022/10/11 07:31:40;;;;;;;;;;;;;;;13.81;85.85;101027.97;5537352;32;34502;-67
2022/10/11 07:34:44;;;;;;;;;;;;;;;13.92;85.23;101022.25;5551203;32;34731;-67
2022/10/11 07:37:48;;;;;;;;;;;;;;;14.09;83.65;101020.31;5551169;32;34117;-66
2022/10/11 07:40:52;;;;;;;;;;;;;;;14.03;82.71;101030.88;5551074;32;34221;-67
2022/10/11 07:43:56;;;;;;;;;;;;;;;14.93;77.98;101023.94;5551088;32;34764;-68
2022/10/11 07:46:59;;;;;;;;;;;;;;;15.07;76.65;101026.66;5550896;32;35070;-66
2022/10/11 07:50:04;;;;;;;;;;;;;;;15.47;74.96;101025.41;5551701;32;34300;-67
2022/10/11 07:53:08;;;;;;;;;;;;;;;16.19;71.00;101032.75;5537205;32;34379;-67
2022/10/11 07:56:14;;;;;;;;;;;;;;;16.84;67.55;101030.81;5550623;32;34162;-67
2022/10/11 07:59:17;;;;;;;;;;;;;;;17.33;66.45;101043.34;5537203;32;34682;-67
2022/10/11 08:02:20;;;;;;;;;;;;;;;17.41;64.94;101031.62;5550158;32;34975;-66
2022/10/11 08:05:25;;;;;;;;;;;;;;;16.46;65.35;101038.19;5536851;32;34221;-67
2022/10/11 08:08:28;;;;;;;;;;;;;;;16.88;64.25;101034.75;5550797;32;34463;-67
2022/10/11 08:11:33;;;;;;;;;;;;;;;17.66;61.81;101044.44;5536935;32;33856;-66
2022/10/11 08:14:37;;;;;;;;;;;;;;;17.07;64.46;101035.94;5550613;32;34191;-66
2022/10/11 08:17:40;;;;;;;;;;;;;;;17.36;62.62;101037.59;5537073;32;34082;-67
2022/10/11 08:20:43;;;;;;;;;;;;;;;17.71;61.69;101044.66;5550799;32;34359;-67
2022/10/11 08:23:46;;;;;;;;;;;;;;;16.77;65.19;101035.25;5550724;32;34895;-67
2022/10/11 08:26:50;;;;;;;;;;;;;;;17.19;64.33;101041.56;5550705;32;34209;-69
2022/10/11 08:29:53;;;;;;;;;;;;;;;17.86;61.35;101039.16;5537040;32;35098;-68
2022/10/11 08:32:56;;;;;;;;;;;;;;;17.39;63.72;101042.56;5536878;32;34326;-67
2022/10/11 08:36:02;;;;;;;;;;;;;;;16.58;67.37;101038.56;5536654;32;33143;-68
2022/10/11 08:39:07;;;;;;;;;;;;;;;15.86;70.85;101041.22;5536410;32;35621;-67
2022/10/11 08:42:14;;;;;;;;;;;;;;;15.41;73.56;101033.34;5550406;32;34426;-68
2022/10/11 08:45:37;;;;;;;;;;;;;;;15.46;74.07;101036.28;5550134;32;34397;-68
2022/10/11 08:48:42;;;;;;;;;;;;;;;15.77;72.80;101038.81;5550135;32;34945;-68
2022/10/11 08:51:47;;;;;;;;;;;;;;;15.82;74.17;101034.59;5536651;32;34546;-68
2022/10/11 08:54:52;;;;;;;;;;;;;;;15.71;74.44;101028.84;5550213;32;34308;-67
2022/10/11 08:57:58;;;;;;;;;;;;;;;15.93;74.23;101022.56;5550084;32;34905;-68
2022/10/11 09:01:03;;;;;;;;;;;;;;;16.24;72.94;101027.66;5536457;32;34270;-67
2022/10/11 09:04:12;;;;;;;;;;;;;;;16.29;74.03;101026.09;5550016;32;34585;-67
2022/10/11 09:07:16;;;;;;;;;;;;;;;16.31;73.12;101020.56;5549900;32;34229;-68
2022/10/11 09:10:25;;;;;;;;;;;;;;;16.42;71.91;101030.75;5529782;32;34758;-67
2022/10/11 09:13:30;;;;;;;;;;;;;;;16.03;75.29;101031.94;5529522;32;35724;-67
2022/10/11 09:16:53;;;;;;;;;;;;;;;16.09;75.78;101020.50;5535573;32;34740;-67
2022/10/11 09:19:59;;;;;;;;;;;;;;;16.31;74.22;101023.22;5536283;32;34525;-68
2022/10/11 09:23:06;;;;;;;;;;;;;;;16.65;72.39;101030.63;5535830;32;34545;-67
2022/10/11 09:26:13;;;;;;;;;;;;;;;16.86;72.63;101034.09;5535694;32;33760;-67
2022/10/11 09:29:17;;;;;;;;;;;;;;;16.95;73.26;101038.31;5536782;32;34239;-68
2022/10/11 09:32:23;;;;;;;;;;;;;;;17.11;72.50;101042.56;5536451;32;34566;-67
2022/10/11 09:35:27;;;;;;;;;;;;;;;16.84;73.89;101043.37;5522722;32;34273;-69
2022/10/11 09:38:35;;;;;;;;;;;;;;;17.13;72.54;101037.00;5535394;32;34031;-69
2022/10/11 09:41:53;;;;;;;;;;;;;;;17.36;69.26;101041.09;5536247;32;34553;-69
2022/10/11 09:44:58;;;;;;;;;;;;;;;17.25;70.37;101047.00;5536210;32;34969;-67
2022/10/11 09:48:04;;;;;;;;;;;;;;;17.33;70.55;101040.69;5536226;32;35069;-67
2022/10/11 09:51:13;;;;;;;;;;;;;;;17.36;71.14;101042.97;5536046;32;34413;-67
2022/10/11 09:54:17;;;;;;;;;;;;;;;17.31;70.97;101040.03;5536463;32;34211;-66
2022/10/11 09:57:23;;;;;;;;;;;;;;;17.45;69.72;101039.09;5522861;32;34915;-68
2022/10/11 10:00:31;;;;;;;;;;;;;;;17.85;68.16;101045.56;5535409;32;34208;-68
2022/10/11 10:03:35;;;;;;;;;;;;;;;17.85;70.22;101047.41;5536096;32;34832;-67
2022/10/11 10:06:40;;;;;;;;;;;;;;;17.86;69.02;101049.06;5536049;32;34985;-68
2022/10/11 10:09:44;;;;;;;;;;;;;;;18.52;67.08;101052.81;5539916;32;34916;-66
2022/10/11 10:12:52;;;;;;;;;;;;;;;18.94;64.96;101041.75;5555038;32;34876;-68
2022/10/11 10:15:58;;;;;;;;;;;;;;;18.95;64.86;101046.09;5541627;32;35056;-68
2022/10/11 10:19:06;;;;;;;;;;;;;;;19.40;63.71;101032.84;5541672;32;35541;-68
2022/10/11 10:22:25;;;;;;;;;;;;;;;19.91;63.06;101028.38;5554974;32;35242;-67
2022/10/11 10:25:33;;;;;;;;;;;;;;;20.35;60.35;101022.19;5553980;32;34246;-66
2022/10/11 10:28:58;;;;;;;;;;;;;;;20.34;61.52;101017.00;5538791;32;34375;-67
2022/10/11 10:32:10;;;;;;;;;;;;;;;21.22;59.80;101017.81;5538188;32;34195;-68
2022/10/11 10:35:26;;;;;;;;;;;;;;;21.81;56.34;101021.78;5537718;32;35164;-67
2022/10/11 10:38:32;;;;;;;;;;;;;;;20.91;60.29;101012.47;5551624;32;34853;-68
2022/10/11 10:41:37;;;;;;;;;;;;;;;21.90;56.12;101018.53;5537691;32;34811;-68
2022/10/11 10:44:40;;;;;;;;;;;;;;;22.52;55.16;101019.19;5537722;32;34992;-68
2022/10/11 10:47:43;;;;;;;;;;;;;;;22.95;53.79;101014.38;5537960;32;32815;-68
2022/10/11 10:51:06;;;;;;;;;;;;;;;22.85;54.14;101018.72;5551536;32;34137;-68
2022/10/11 10:54:15;;;;;;;;;;;;;;;22.89;53.08;101017.19;5551262;32;35036;-68
2022/10/11 10:57:22;;;;;;;;;;;;;;;22.94;53.67;101015.44;5524461;32;33210;-68
2022/10/11 11:00:28;;;;;;;;;;;;;;;23.85;51.20;101005.88;5551719;32;34172;-68
2022/10/11 11:03:31;;;;;;;;;;;;;;;24.13;49.43;101008.59;5525199;32;33511;-67
2022/10/11 11:06:42;;;;;;;;;;;;;;;24.28;49.12;101001.84;5537627;32;35112;-68
2022/10/11 11:10:04;;;;;;;;;;;;;;;24.79;47.41;101004.38;5551424;32;34611;-69
2022/10/11 11:13:14;;;;;;;;;;;;;;;26.12;44.63;101003.31;5537368;32;34326;-68
2022/10/11 11:16:25;;;;;;;;;;;;;;;27.02;42.87;101007.19;5551483;32;34783;-68
2022/10/11 11:19:33;;;;;;;;;;;;;;;28.12;40.01;100999.91;5537491;32;35509;-68
2022/10/11 11:22:49;;;;;;;;;;;;;;;25.29;45.49;101003.56;5537692;32;34027;-69
2022/10/11 11:25:55;;;;;;;;;;;;;;;26.46;43.83;101005.88;5551264;32;35094;-66
2022/10/11 11:29:11;;;;;;;;;;;;;;;26.93;42.24;101001.41;5551076;32;34828;-67
2022/10/11 11:32:33;;;;;;;;;;;;;;;27.06;41.67;100998.22;5537541;32;34393;-68
2022/10/11 11:35:40;;;;;;;;;;;;;;;25.47;45.43;100998.66;5537518;32;34369;-68
2022/10/11 11:38:56;;;;;;;;;;;;;;;26.52;43.10;100989.34;5549800;32;34923;-68
2022/10/11 11:42:05;;;;;;;;;;;;;;;25.65;45.35;100989.44;5551150;32;34527;-69
2022/10/11 11:45:23;;;;;;;;;;;;;;;26.51;42.92;100987.69;5537707;32;34378;-67
2022/10/11 11:48:26;;;;;;;;;;;;;;;26.35;43.53;100986.72;5550859;32;34911;-66
2022/10/11 11:51:32;;;;;;;;;;;;;;;26.37;43.63;100987.28;5537330;32;34541;-67
2022/10/11 11:54:35;;;;;;;;;;;;;;;25.17;46.02;100989.28;5537310;32;34763;-67
2022/10/11 11:57:39;;;;;;;;;;;;;;;23.88;49.09;100980.97;5537053;32;34258;-67
2022/10/11 12:00:52;;;;;;;;;;;;;;;21.93;55.47;100974.06;5537327;32;34872;-67
2022/10/11 12:04:00;;;;;;;;;;;;;;;21.20;58.14;100980.25;5537264;32;34201;-67
2022/10/11 12:07:06;;;;;;;;;;;;;;;22.51;54.88;100982.41;5550660;32;34723;-69
2022/10/11 12:10:25;;;;;;;;;;;;;;;25.42;47.51;100985.00;5550526;32;34299;-67
2022/10/11 12:13:36;;;;;;;;;;;;;;;27.00;42.88;100987.59;5550623;32;35541;-67
2022/10/11 12:17:00;;;;;;;;;;;;;;;26.68;43.25;100985.66;5550594;32;34863;-68
2022/10/11 12:20:20;;;;;;;;;;;;;;;24.80;47.01;100970.75;5550623;32;33805;-67
2022/10/11 12:23:29;;;;;;;;;;;;;;;22.70;53.07;100975.87;5550460;32;34809;-67
2022/10/11 12:26:34;;;;;;;;;;;;;;;22.03;56.20;100967.06;5536478;32;34296;-68
2022/10/11 12:29:48;;;;;;;;;;;;;;;22.21;57.17;100965.38;5550314;32;35138;-67
2022/10/11 12:32:51;;;;;;;;;;;;;;;21.85;57.16;100958.13;5550477;32;34320;-67
2022/10/11 12:35:54;;;;;;;;;;;;;;;21.46;58.94;100954.03;5524173;32;35234;-67
2022/10/11 12:39:16;;;;;;;;;;;;;;;22.49;54.83;100963.69;5523810;32;34793;-67
2022/10/11 12:42:22;;;;;;;;;;;;;;;22.23;55.54;100955.16;5550564;32;34254;-67
2022/10/11 12:45:30;;;;;;;;;;;;;;;22.35;55.91;100956.03;5536477;32;35684;-66
2022/10/11 12:48:34;;;;;;;;;;;;;;;21.47;57.77;100953.00;5550254;32;34770;-67
2022/10/11 12:51:57;;;;;;;;;;;;;;;21.26;58.89;100954.25;5550158;32;34304;-67
2022/10/11 12:55:19;;;;;;;;;;;;;;;20.98;59.20;100949.31;5550727;32;34366;-67
2022/10/11 12:58:26;;;;;;;;;;;;;;;21.39;59.51;100950.59;5550372;32;34781;-68
2022/10/11 13:01:47;;;;;;;;;;;;;;;20.99;59.91;100952.84;5536171;32;35136;-67
2022/10/11 13:04:50;;;;;;;;;;;;;;;21.14;59.49;100946.09;5536311;32;35618;-67
2022/10/11 13:07:56;;;;;;;;;;;;;;;21.42;60.35;100950.16;5535867;32;34369;-66
2022/10/11 13:11:02;;;;;;;;;;;;;;;21.31;59.44;100942.78;5535716;32;34407;-67
2022/10/11 13:14:15;;;;;;;;;;;;;;;21.48;58.94;100949.25;5550004;32;34849;-67
2022/10/11 13:17:20;;;;;;;;;;;;;;;21.37;58.99;100950.00;5536129;32;34414;-67
2022/10/11 13:20:28;;;;;;;;;;;;;;;21.10;60.43;100950.25;5549691;32;34888;-67
2022/10/11 13:23:37;;;;;;;;;;;;;;;21.27;62.91;100947.81;5549816;32;34219;-66
2022/10/11 13:26:46;;;;;;;;;;;;;;;21.48;60.11;100941.16;5523443;32;35116;-67
2022/10/11 13:29:52;;;;;;;;;;;;;;;21.26;60.02;100946.16;5535453;32;34226;-67
2022/10/11 13:32:57;;;;;;;;;;;;;;;21.56;57.79;100957.88;5535371;32;34691;-67
2022/10/11 13:36:02;;;;;;;;;;;;;;;21.44;58.22;100948.06;5535305;32;34224;-68
2022/10/11 13:39:23;;;;;;;;;;;;;;;22.10;57.04;100942.66;5549424;32;34851;-68
2022/10/11 13:42:34;;;;;;;;;;;;;;;22.61;54.69;100943.97;5535545;32;35260;-67
2022/10/11 13:45:40;;;;;;;;;;;;;;;21.78;56.30;100936.62;5548924;32;34933;-67
2022/10/11 13:48:44;;;;;;;;;;;;;;;22.80;53.31;100949.06;5509972;32;33753;-67
2022/10/11 13:52:00;;;;;;;;;;;;;;;22.98;53.20;100950.03;5548922;32;34350;-67
2022/10/11 13:55:08;;;;;;;;;;;;;;;23.23;51.76;100948.72;5535116;32;32943;-67
2022/10/11 13:58:34;;;;;;;;;;;;;;;22.51;53.82;100949.97;5548772;32;34099;-67
2022/10/11 14:01:40;;;;;;;;;;;;;;;21.47;57.49;100945.72;5549043;32;34269;-67
2022/10/11 14:04:43;;;;;;;;;;;;;;;20.78;60.38;100943.28;5537560;32;33127;-66
2022/10/11 14:07:47;;;;;;;;;;;;;;;20.20;62.18;100942.66;5537380;32;33242;-68
2022/10/11 14:10:52;;;;;;;;;;;;;;;20.48;62.58;100943.09;5550949;32;33970;-67
2022/10/11 14:14:21;;;;;;;;;;;;;;;20.38;62.27;100940.09;5551374;32;34281;-67
2022/10/11 14:17:35;;;;;;;;;;;;;;;20.17;62.20;100948.47;5537131;32;34309;-66
2022/10/11 14:20:40;;;;;;;;;;;;;;;19.83;64.31;100949.69;5551160;32;34328;-66
2022/10/11 14:23:51;;;;;;;;;;;;;;;19.67;65.20;100947.47;5550953;32;34034;-66
2022/10/11 14:26:56;;;;;;;;;;;;;;;19.85;64.65;100950.28;5550376;32;34222;-67
2022/10/11 14:30:01;;;;;;;;;;;;;;;19.65;64.48;100944.19;5537324;32;33056;-67
2022/10/11 14:33:27;;;;;;;;;;;;;;;19.63;65.37;100949.78;5537064;32;34074;-67
2022/10/11 14:36:32;;;;;;;;;;;;;;;19.54;65.78;100951.06;5537583;32;34552;-67
2022/10/11 14:39:37;;;;;;;;;;;;;;;19.61;65.93;100951.00;5551057;32;34341;-67
2022/10/11 14:42:43;;;;;;;;;;;;;;;19.38;66.34;100955.00;5524505;32;32878;-67
2022/10/11 14:45:48;;;;;;;;;;;;;;;19.47;65.39;100950.25;5536781;32;34909;-67
2022/10/11 14:48:54;;;;;;;;;;;;;;;19.47;65.91;100950.25;5524452;32;36414;-67
2022/10/11 14:52:00;;;;;;;;;;;;;;;19.33;68.17;100945.91;5550822;32;34266;-68
2022/10/11 14:55:06;;;;;;;;;;;;;;;19.21;67.52;100947.59;5550978;32;34318;-68
2022/10/11 14:58:13;;;;;;;;;;;;;;;19.21;67.32;100953.00;5536032;32;33515;-68
2022/10/11 15:01:18;;;;;;;;;;;;;;;19.14;67.84;100953.00;5550070;32;34175;-67
2022/10/11 15:04:25;;;;;;;;;;;;;;;19.18;68.10;100948.00;5537247;32;34239;-67
2022/10/11 15:07:31;;;;;;;;;;;;;;;19.11;68.35;100945.34;5550529;32;35000;-66
2022/10/11 15:10:38;;;;;;;;;;;;;;;19.16;67.92;100942.03;5550456;32;34959;-67
2022/10/11 15:13:45;;;;;;;;;;;;;;;19.22;67.03;100946.56;5536038;32;34311;-68
2022/10/11 15:16:51;;;;;;;;;;;;;;;19.21;68.11;100953.00;5549768;32;35019;-67
2022/10/11 15:19:55;;;;;;;;;;;;;;;19.19;68.34;100946.97;5550396;32;34888;-67
2022/10/11 15:22:59;;;;;;;;;;;;;;;19.12;69.90;100956.94;5536467;32;34601;-68
2022/10/11 15:26:04;;;;;;;;;;;;;;;19.01;70.58;100953.00;5536410;32;34548;-67
2022/10/11 15:29:09;;;;;;;;;;;;;;;18.89;71.60;100957.34;5537206;32;34925;-68
2022/10/11 15:32:15;;;;;;;;;;;;;;;18.71;72.12;100958.00;5550507;32;34446;-68
2022/10/11 15:35:21;;;;;;;;;;;;;;;18.52;71.52;100970.34;5550724;32;34474;-67
2022/10/11 15:38:27;;;;;;;;;;;;;;;18.43;72.29;100965.38;5536161;32;34325;-68
2022/10/11 15:41:33;;;;;;;;;;;;;;;18.36;72.99;100970.75;5537144;32;34849;-67
2022/10/11 15:44:38;;;;;;;;;;;;;;;18.27;73.56;100974.66;5536893;32;32725;-67
2022/10/11 15:47:45;;;;;;;;;;;;;;;18.22;74.45;100974.44;5536625;32;35348;-67
2022/10/11 15:50:50;;;;;;;;;;;;;;;18.15;74.58;100981.66;5550506;32;35100;-67
2022/10/11 15:53:57;;;;;;;;;;;;;;;18.04;73.63;100979.56;5536317;32;33284;-67
2022/10/11 15:57:03;;;;;;;;;;;;;;;17.98;75.02;100974.97;5550512;32;34826;-67
2022/10/11 16:00:09;;;;;;;;;;;;;;;17.94;74.84;100979.94;5550578;32;34917;-67